createdAt,value
2023-10-23T00:00:58.033Z,100127.08
2023-10-23T00:06:15.240Z,100124.55
2023-10-23T00:11:29.142Z,100127.67
2023-10-23T00:16:33.171Z,100138.82
2023-10-23T00:21:36.159Z,100144.72
2023-10-23T00:26:40.241Z,100148.00
2023-10-23T00:31:43.294Z,100152.77
2023-10-23T00:36:46.250Z,100160.16
2023-10-23T00:41:49.135Z,100163.18
2023-10-23T00:46:52.041Z,100174.28
2023-10-23T00:51:55.852Z,100178.66
2023-10-23T00:56:58.988Z,100181.71
2023-10-23T01:02:02.670Z,100183.98
2023-10-23T01:07:05.670Z,100192.50
2023-10-23T01:12:08.662Z,100203.55
2023-10-23T01:17:11.589Z,100205.46
2023-10-23T01:22:14.576Z,100213.63
2023-10-23T01:27:18.231Z,100218.39
2023-10-23T01:32:21.125Z,100221.16
2023-10-23T01:37:24.474Z,100225.58
2023-10-23T01:42:30.092Z,100229.81
2023-10-23T01:47:33.109Z,100234.86
2023-10-23T01:52:36.408Z,100239.30
2023-10-23T01:57:39.743Z,100249.31
2023-10-23T02:02:42.867Z,100248.59
2023-10-23T02:07:45.999Z,100250.05
2023-10-23T02:12:49.039Z,100261.51
2023-10-23T02:17:54.609Z,100272.67
2023-10-23T02:22:57.759Z,100271.90
2023-10-23T02:28:00.793Z,100272.77
2023-10-23T02:33:03.834Z,100284.23
2023-10-23T02:38:06.936Z,100286.79
2023-10-23T02:43:09.819Z,100291.08
2023-10-23T02:48:14.000Z,100292.19
2023-10-23T02:53:16.860Z,100296.64
2023-10-23T02:58:20.048Z,100301.18
2023-10-23T03:03:23.038Z,100305.02
2023-10-23T03:08:26.686Z,100317.74
2023-10-23T03:13:29.604Z,100319.69
2023-10-23T03:18:32.540Z,100319.85
2023-10-23T03:23:36.980Z,100320.31
2023-10-23T03:28:40.151Z,100322.33
2023-10-23T03:33:43.763Z,100319.83
2023-10-23T03:38:46.746Z,100322.63
2023-10-23T03:43:49.577Z,100320.38
2023-10-23T03:48:53.578Z,100322.27
2023-10-23T03:53:56.686Z,100329.02
2023-10-23T03:59:01.109Z,100335.48
2023-10-23T04:04:04.536Z,100328.42
2023-10-23T04:09:08.239Z,100327.60
2023-10-23T04:14:11.219Z,100328.64
2023-10-23T04:19:14.206Z,100331.00
2023-10-23T04:24:17.173Z,100335.02
2023-10-23T04:29:20.130Z,100330.77
2023-10-23T04:34:22.976Z,100325.33
2023-10-23T04:39:25.885Z,100330.73
2023-10-23T04:44:28.817Z,100328.66
2023-10-23T04:49:31.763Z,100328.59
2023-10-23T04:54:35.716Z,100334.33
2023-10-23T04:59:38.966Z,100339.36
2023-10-23T05:04:42.291Z,100347.61
2023-10-23T05:09:45.422Z,100358.92
2023-10-23T05:14:48.416Z,100369.81
2023-10-23T05:19:51.340Z,100379.73
2023-10-23T05:24:54.268Z,100386.85
2023-10-23T05:29:57.169Z,100396.55
2023-10-23T05:35:00.341Z,100401.86
2023-10-23T05:40:06.030Z,100415.55
2023-10-23T05:45:10.605Z,100424.87
2023-10-23T05:50:13.661Z,100434.08
2023-10-23T05:55:16.819Z,100436.89
2023-10-23T06:00:19.911Z,100446.23
2023-10-23T06:05:22.793Z,100455.11
2023-10-23T06:10:25.750Z,100465.52
2023-10-23T06:15:28.742Z,100473.11
2023-10-23T06:20:33.313Z,100479.95
2023-10-23T06:25:36.327Z,100486.83
2023-10-23T06:30:39.268Z,100490.30
2023-10-23T06:35:42.195Z,100496.69
2023-10-23T06:40:45.196Z,100503.52
2023-10-23T06:51:00.718Z,100513.29
2023-10-23T06:56:03.913Z,100515.23
2023-10-23T07:01:09.088Z,100518.31
2023-10-23T07:06:13.005Z,100524.34
2023-10-23T07:11:17.408Z,100532.40
2023-10-23T07:16:21.276Z,100534.14
2023-10-23T07:21:27.417Z,100538.88
2023-10-23T07:26:30.598Z,100547.30
2023-10-23T07:31:33.574Z,100550.27
2023-10-23T07:36:38.721Z,100555.38
2023-10-23T07:41:41.696Z,100563.52
2023-10-23T07:46:45.416Z,100572.08
2023-10-23T07:51:48.699Z,100573.44
2023-10-23T07:56:51.649Z,100574.20
2023-10-23T08:01:54.756Z,100577.95
2023-10-23T08:06:57.989Z,100583.42
2023-10-23T08:12:01.109Z,100585.45
2023-10-23T08:17:04.949Z,100587.89
2023-10-23T08:22:08.125Z,100590.97
2023-10-23T08:27:11.118Z,100592.69
2023-10-23T08:32:17.185Z,100590.70
2023-10-23T08:37:21.576Z,100591.56
2023-10-23T08:42:25.045Z,100595.95
2023-10-23T08:47:27.932Z,100595.80
2023-10-23T08:52:36.245Z,100593.38
2023-10-23T08:57:39.034Z,100595.13
2023-10-23T09:02:51.692Z,100603.25
2023-10-23T09:07:55.728Z,100604.61
2023-10-23T09:12:58.667Z,100605.16
2023-10-23T09:18:03.628Z,100605.20
2023-10-23T09:23:06.828Z,100612.11
2023-10-23T09:28:13.833Z,100622.64
2023-10-23T09:33:17.656Z,100624.36
2023-10-23T09:38:22.126Z,100620.78
2023-10-23T09:43:27.506Z,100615.91
2023-10-23T09:48:31.618Z,100618.13
2023-10-23T09:53:34.473Z,100621.02
2023-10-23T09:58:37.323Z,100630.14
2023-10-23T10:03:41.293Z,100626.89
2023-10-23T10:08:49.793Z,100618.60
2023-10-23T10:13:52.818Z,100620.24
2023-10-23T10:18:55.680Z,100623.44
2023-10-23T10:24:00.309Z,100626.20
2023-10-23T10:29:04.334Z,100629.35
2023-10-23T10:34:26.934Z,100626.26
2023-10-23T10:39:53.629Z,100622.33
2023-10-23T10:45:01.594Z,100622.52
2023-10-23T10:50:05.483Z,100618.75
2023-10-23T10:55:13.426Z,100618.38
2023-10-23T11:00:17.160Z,100621.21
2023-10-23T11:05:20.244Z,100622.64
2023-10-23T11:10:23.342Z,100611.38
2023-10-23T11:15:27.208Z,100610.04
2023-10-23T11:20:32.595Z,100606.66
2023-10-23T11:25:37.432Z,100604.57
2023-10-23T11:30:48.670Z,100603.16
2023-10-23T11:35:53.645Z,100605.82
2023-10-23T11:40:57.799Z,100609.15
2023-10-23T11:46:00.968Z,100609.74
2023-10-23T11:51:05.779Z,100608.46
2023-10-23T11:56:09.153Z,100608.39
2023-10-23T12:01:12.209Z,100611.23
2023-10-23T12:06:15.276Z,100616.06
2023-10-23T12:11:18.918Z,100617.85
2023-10-23T12:16:21.987Z,100616.43
2023-10-23T12:21:26.543Z,100622.30
2023-10-23T12:26:29.988Z,100619.25
2023-10-23T12:31:33.199Z,100619.33
2023-10-23T12:36:55.903Z,100617.30
2023-10-23T12:41:58.955Z,100610.98
2023-10-23T12:47:01.992Z,100612.41
2023-10-23T12:52:06.033Z,100612.63
2023-10-23T12:57:09.184Z,100616.27
2023-10-23T13:02:12.226Z,100616.59
2023-10-23T13:07:15.295Z,100621.02
2023-10-23T13:12:18.490Z,100622.67
2023-10-23T13:17:21.444Z,100628.94
2023-10-23T13:22:24.938Z,100631.23
2023-10-23T13:27:27.880Z,100629.61
2023-10-23T13:32:30.871Z,100630.45
2023-10-23T13:37:34.163Z,100629.70
2023-10-23T13:42:37.047Z,100632.79
2023-10-23T13:47:40.092Z,100633.54
2023-10-23T13:52:43.144Z,100632.64
2023-10-23T13:57:46.171Z,100630.23
2023-10-23T14:02:49.282Z,100630.94
2023-10-23T14:07:52.999Z,100632.27
2023-10-23T14:12:56.081Z,100627.23
2023-10-23T14:17:59.093Z,100617.17
2023-10-23T14:23:02.031Z,100616.05
2023-10-23T14:28:05.691Z,100611.92
2023-10-23T14:33:08.889Z,100612.66
2023-10-23T14:38:12.745Z,100612.83
2023-10-23T14:43:15.737Z,100608.40
2023-10-23T14:48:20.723Z,100607.10
2023-10-23T14:53:27.470Z,100603.63
2023-10-23T14:58:30.938Z,100604.53
2023-10-23T15:03:42.601Z,100596.48
2023-10-23T15:08:46.656Z,100594.98
2023-10-23T15:13:50.590Z,100590.91
2023-10-23T15:18:54.297Z,100584.25
2023-10-23T15:23:58.144Z,100583.73
2023-10-23T15:29:01.131Z,100586.58
2023-10-23T15:34:04.584Z,100589.43
2023-10-23T15:39:09.734Z,100591.52
2023-10-23T15:44:13.969Z,100602.58
2023-10-23T15:49:17.225Z,100610.00
2023-10-23T15:54:20.326Z,100609.38
2023-10-23T15:59:23.214Z,100610.86
2023-10-23T16:04:26.188Z,100616.08
2023-10-23T16:09:29.216Z,100621.19
2023-10-23T16:14:36.787Z,100615.92
2023-10-23T16:19:49.306Z,100615.23
2023-10-23T16:24:52.274Z,100620.72
2023-10-23T16:29:55.428Z,100626.45
2023-10-23T16:34:59.037Z,100623.80
2023-10-23T16:40:01.963Z,100623.48
2023-10-23T16:45:06.277Z,100618.17
2023-10-23T16:50:10.234Z,100613.21
2023-10-23T16:55:13.290Z,100609.98
2023-10-23T17:00:16.525Z,100608.75
2023-10-23T17:05:19.436Z,100611.46
2023-10-23T17:10:22.489Z,100611.31
2023-10-23T17:15:25.430Z,100610.66
2023-10-23T17:20:28.360Z,100611.80
2023-10-23T17:25:31.238Z,100608.30
2023-10-23T17:30:34.249Z,100605.23
2023-10-23T17:35:39.338Z,100597.45
2023-10-23T17:40:42.297Z,100588.54
2023-10-23T17:45:45.231Z,100590.64
2023-10-23T17:50:48.046Z,100586.94
2023-10-23T17:55:50.953Z,100581.36
2023-10-23T18:00:53.892Z,100586.12
2023-10-23T18:06:00.397Z,100591.15
2023-10-23T18:11:11.410Z,100598.56
2023-10-23T18:16:15.143Z,100605.38
2023-10-23T18:21:19.533Z,100601.54
2023-10-23T18:26:22.942Z,100599.77
2023-10-23T18:31:26.697Z,100596.31
2023-10-23T18:36:32.850Z,100594.39
2023-10-23T18:41:35.781Z,100589.87
2023-10-23T18:46:39.194Z,100584.58
2023-10-23T18:51:42.329Z,100584.94
2023-10-23T18:56:46.633Z,100587.10
2023-10-23T19:01:50.520Z,100587.23
2023-10-23T19:06:53.472Z,100592.14
2023-10-23T19:11:57.200Z,100593.44
2023-10-23T19:17:04.707Z,100591.45
2023-10-23T19:22:08.242Z,100588.32
2023-10-23T19:27:12.283Z,100584.90
2023-10-23T19:32:16.053Z,100586.34
2023-10-23T19:37:19.776Z,100581.02
2023-10-23T19:42:24.986Z,100576.29
2023-10-23T19:47:28.457Z,100572.37
2023-10-23T19:52:37.291Z,100571.65
2023-10-23T19:57:40.455Z,100577.29
2023-10-23T20:02:43.658Z,100578.05
2023-10-23T20:07:46.602Z,100581.56
2023-10-23T20:12:51.205Z,100575.92
2023-10-23T20:17:56.095Z,100573.38
2023-10-23T20:22:59.100Z,100574.02
2023-10-23T20:28:03.955Z,100577.27
2023-10-23T20:33:08.638Z,100572.20
2023-10-23T20:38:11.668Z,100569.21
2023-10-23T20:43:14.612Z,100572.67
2023-10-23T20:48:17.556Z,100572.89
2023-10-23T20:53:20.406Z,100569.92
2023-10-23T20:58:24.265Z,100570.98
2023-10-23T21:03:27.236Z,100568.02
2023-10-23T21:08:30.322Z,100566.92
2023-10-23T21:13:33.297Z,100565.25
2023-10-23T21:18:36.368Z,100559.95
2023-10-23T21:23:39.403Z,100561.99
2023-10-23T21:28:47.645Z,100561.48
2023-10-23T21:33:50.735Z,100559.71
2023-10-23T21:38:53.578Z,100555.30
2023-10-23T21:43:56.482Z,100551.48
2023-10-23T21:49:03.744Z,100550.86
2023-10-23T21:54:07.450Z,100549.33
2023-10-23T21:59:13.490Z,100547.49
2023-10-23T22:04:16.960Z,100548.97
2023-10-23T22:09:20.287Z,100546.98
2023-10-23T22:14:23.621Z,100549.18
2023-10-23T22:19:26.651Z,100550.52
2023-10-23T22:24:29.702Z,100551.25
2023-10-23T22:29:32.785Z,100558.02
2023-10-23T22:34:35.879Z,100560.35
2023-10-23T22:39:38.988Z,100560.00
2023-10-23T22:44:42.099Z,100557.91
2023-10-23T22:49:45.810Z,100553.52
2023-10-23T22:54:48.995Z,100562.89
2023-10-23T22:59:52.788Z,100565.23
2023-10-23T23:04:55.984Z,100559.27
2023-10-23T23:09:59.229Z,100555.97
2023-10-23T23:15:02.892Z,100553.86
2023-10-23T23:20:08.464Z,100552.53
2023-10-23T23:25:11.355Z,100544.04
2023-10-23T23:30:14.720Z,100546.63
2023-10-23T23:35:17.651Z,100547.98
2023-10-23T23:40:20.665Z,100540.02
2023-10-23T23:45:23.576Z,100535.33
2023-10-23T23:50:26.547Z,100527.97
2023-10-23T23:55:29.641Z,100532.49
